Pagrindinis puslapis
METAR-TAF:

METAR-TAF

Oro uostai :

Subang Jaya, Malaizija

platuma: 03-07N, ilguma: 101-32E, Aukštis: 27 m

Dabartinis oras

Ataskaita buvo paskelbta 47 minutes, ne 20:00 UTC
Ramus vėjas
Temperatūra 26°C
Drėgmė 89%
Slėgis 1009 hPa
Matomumas: 1500 m
Mažai debesys ne aukštis 1700 ft, Liūtiniai kamuoliniai debesys.
Su prošvaistėmis ne aukštis 27000 ft
migla

METAR: WMSA 202000Z 00000KT 1500 HZ FEW017CB BKN270 26/24 Q1009

Laikas: 04:47 (20:47 UTC)

Prognozė

Ataskaita buvo paskelbta 3 valandos ir 47 minutes, ne 17:00 UTC
Prognozė galioja nuo 20 metu 18 UTC su 21 metu 18 UTC
Vėjas 5 kt iš Pietryčių
Matomumas: 2000 m
Mažai debesys ne aukštis 2500 ft
migla
Tapsmas
nuo 21 metu 00 UTC su 21 metu 02 UTC
Vėjas 5 kt iš Pietų
Matomumas: 4500 m
Mažai debesys ne aukštis 1800 ft
migla

TAF: WMSA 201700Z 2018/2118 14005KT 2000 HZ FEW025 BECMG 2100/2102 17005KT 4500 HZ FEW018

Orai ataskaitas ir orų prognozės (METAR, TAF).

turimą stotys yra geltonos ir raudonos taškus žemėlapyje.

Perkelti pele per norėdami pamatyti stoties vardą.

Tada spustelėkite, norėdami matyti oro stebėjimo ir prognozės.

Norėdami pakeisti žemėlapį: spustelėkite ant žalios mygtukų su juodo kryžiaus žemyn,; žalią mygtuką su brūkšneliu, jei norite nutolinti; arba žalių rodyklių gretimoms žemėlapius.


METAR-TAF: